Royal Prince — WCX8037 — position and weather

sailwx.info

Track history (hours):
 
Tides and Currents Weather Stations Pressure Air Temp Water Temp Dewpoint Dewpoint Depression Visibility Wind Speed Wind Dir Waves Ship Positions

Royal Prince

Owner: Golden Gate Scenic Steamship Corp, SAN FRANCISCO, CA. More information available from US FCC via Universal Licensing System and Coast Guard Vessel Documentation Center.

Last reported at 2017-Dec-11 03:52 UTC. Time now 2017-Dec-12 02:51 UTC.
Position N 37°49' W 122°25'.

; draft 3 m.

Type: Passenger vessel. MMSI: 366975760.

Date/timePositionNaut miles runAvg speedWind from/ knotsBaromVisibWave heightAir tempDewpointWater temp
2017-Dec-11 03:52N 37°49' W 122°25'0 0.0
2017-Dec-11 03:30N 37°49' W 122°25'2 4.6
2017-Dec-11 03:00N 37°47' W 122°23'2 4.2
2017-Dec-11 02:30N 37°49' W 122°23'4 8.0
2017-Dec-11 02:00N 37°49' W 122°28'3 5.2
2017-Dec-11 01:30N 37°49' W 122°25'0 0.0
2017-Dec-11 01:00N 37°49' W 122°25'1 2.0
2017-Dec-11 00:30N 37°50' W 122°25'1 3.0
2017-Dec-11 00:00N 37°49' W 122°27'1 2.9
2017-Dec-10 23:30N 37°49' W 122°25'3 5.4
2017-Dec-10 23:00N 37°49' W 122°28'3 5.4
2017-Dec-10 22:30N 37°49' W 122°25'0 0.9
2017-Dec-10 22:00N 37°49' W 122°24'3 5.8
2017-Dec-10 21:30N 37°49' W 122°28'3 5.1
2017-Dec-10 21:00N 37°49' W 122°25'0 0.0
2017-Dec-10 20:30N 37°49' W 122°25'1 2.4
2017-Dec-10 20:00N 37°50' W 122°25'2 3.2
2017-Dec-10 19:30N 37°49' W 122°27'2 3.0
2017-Dec-10 19:00N 37°49' W 122°25'3 5.2
2017-Dec-10 18:30N 37°49' W 122°28'3 5.2
2017-Dec-10 18:00N 37°49' W 122°25'0 0.0
2017-Dec-10 03:50N 37°49' W 122°25'0 0.0
2017-Dec-10 03:30N 37°49' W 122°25'2 4.7
2017-Dec-10 03:01N 37°47' W 122°23'2 5.0
2017-Dec-10 02:30N 37°49' W 122°24'4 7.3
2017-Dec-10 02:00N 37°49' W 122°28'3 5.3
2017-Dec-10 01:30N 37°49' W 122°25'0 0.0
2017-Dec-10 01:00N 37°49' W 122°25'1 1.6
2017-Dec-10 00:30N 37°49' W 122°25'2 4.5
2017-Dec-10 00:00N 37°49' W 122°27'2 3.8
2017-Dec-09 23:30N 37°49' W 122°25'2 4.7
2017-Dec-09 23:00N 37°49' W 122°28'2 4.7
2017-Dec-09 22:30N 37°49' W 122°25'1 1.1
2017-Dec-09 22:00N 37°49' W 122°24'3 5.8
2017-Dec-09 21:30N 37°49' W 122°28'2 4.8
2017-Dec-09 21:00N 37°49' W 122°25'0 0.0
2017-Dec-09 20:30N 37°49' W 122°25'1 1.8
2017-Dec-09 20:00N 37°49' W 122°25'2 3.9
2017-Dec-09 19:31N 37°49' W 122°27'2 3.6
2017-Dec-09 19:00N 37°49' W 122°25'2 4.2
2017-Dec-09 18:30N 37°49' W 122°27'2 4.2
2017-Dec-09 18:00N 37°49' W 122°25'0 0.0
2017-Dec-09 17:30N 37°49' W 122°25'0 0.0
2017-Dec-09 03:59N 37°49' W 122°25'0 0.0
2017-Dec-09 03:30N 37°49' W 122°25'2 4.8
2017-Dec-09 03:01N 37°47' W 122°23'2 4.9
2017-Dec-09 02:30N 37°49' W 122°24'4 7.2
2017-Dec-09 02:00N 37°49' W 122°28'3 5.2
2017-Dec-09 01:30N 37°49' W 122°25'0 0.0
2017-Dec-09 01:00N 37°49' W 122°25'1 1.9
2017-Dec-09 00:30N 37°50' W 122°25'2 3.7
2017-Dec-09 00:00N 37°49' W 122°27'2 3.6
2017-Dec-08 23:30N 37°49' W 122°25'2 4.4
2017-Dec-08 23:00N 37°49' W 122°27'2 4.4
2017-Dec-08 22:30N 37°49' W 122°25'1 1.3
2017-Dec-08 22:00N 37°49' W 122°24'3 5.1
2017-Dec-08 21:31N 37°49' W 122°28'2 4.3
2017-Dec-08 21:00N 37°49' W 122°25'0 0.0
2017-Dec-08 20:30N 37°49' W 122°25'1 2.6
2017-Dec-08 20:01N 37°50' W 122°25'1 2.2
2017-Dec-08 19:30N 37°49' W 122°26'1 1.3
2017-Dec-08 19:00N 37°49' W 122°25'2 4.5
2017-Dec-08 18:30N 37°49' W 122°28'2 4.5
2017-Dec-08 18:00N 37°49' W 122°25'0 0.0
2017-Dec-08 17:30N 37°49' W 122°25'0 0.0
2017-Dec-08 17:00N 37°49' W 122°25'0 0.0
2017-Dec-08 16:30N 37°49' W 122°25'0 0.0
2017-Dec-08 03:37N 37°49' W 122°25'0 0.0
2017-Dec-08 03:30N 37°49' W 122°25'2 4.7
2017-Dec-08 03:00N 37°47' W 122°23'3 5.4
2017-Dec-08 02:30N 37°49' W 122°24'4 7.1
2017-Dec-08 02:00N 37°49' W 122°28'3 5.8
2017-Dec-08 01:30N 37°49' W 122°25'0 0.0
2017-Dec-08 01:00N 37°49' W 122°25'1 2.0
2017-Dec-08 00:30N 37°50' W 122°25'2 4.6
2017-Dec-08 00:00N 37°49' W 122°28'2 4.7
2017-Dec-07 23:30N 37°49' W 122°25'2 4.5
2017-Dec-07 23:00N 37°49' W 122°28'2 4.5
2017-Dec-07 22:30N 37°49' W 122°25'1 1.3
2017-Dec-07 22:00N 37°49' W 122°25'2 4.7
2017-Dec-07 21:30N 37°49' W 122°28'2 4.2
2017-Dec-07 21:00N 37°49' W 122°25'0 0.0
2017-Dec-07 20:30N 37°49' W 122°25'1 1.9
2017-Dec-07 20:00N 37°50' W 122°25'2 3.2
2017-Dec-07 19:30N 37°49' W 122°27'2 3.0
2017-Dec-07 19:00N 37°49' W 122°25'3 6.1
2017-Dec-07 18:30N 37°49' W 122°29'3 0.2
2017-Dec-07 00:45N 37°49' W 122°25'1 4.2
2017-Dec-07 00:30N 37°50' W 122°25'2 4.1
2017-Dec-07 00:00N 37°49' W 122°28'2 4.2
2017-Dec-06 23:30N 37°49' W 122°25'2 3.7
2017-Dec-06 23:00N 37°49' W 122°27'2 3.7
2017-Dec-06 22:30N 37°49' W 122°25'0 0.4
2017-Dec-06 22:00N 37°49' W 122°25'3 6.1
2017-Dec-06 21:30N 37°49' W 122°29'3 5.8
2017-Dec-06 21:00N 37°49' W 122°25'  
2017-Dec-04 03:52N 37°49' W 122°25'0 0.0
2017-Dec-04 03:30N 37°49' W 122°25'2 4.6
2017-Dec-04 03:00N 37°47' W 122°23'2 4.4
2017-Dec-04 02:30N 37°49' W 122°23'4 7.9
2017-Dec-04 02:00N 37°49' W 122°28'3 5.2
2017-Dec-04 01:30N 37°49' W 122°25'0 0.0
2017-Dec-04 01:00N 37°49' W 122°25'1 1.7
2017-Dec-04 00:30N 37°49' W 122°25'2 4.1
2017-Dec-04 00:00N 37°49' W 122°28'2 4.3
2017-Dec-03 23:30N 37°49' W 122°25'2 4.5
2017-Dec-03 23:00N 37°49' W 122°28'2 4.5
2017-Dec-03 22:30N 37°49' W 122°25'1 1.1
2017-Dec-03 22:00N 37°49' W 122°25'3 5.4
2017-Dec-03 21:30N 37°49' W 122°28'3 5.3
2017-Dec-03 21:00N 37°49' W 122°25'0 0.0
2017-Dec-03 20:30N 37°49' W 122°25'1 2.0
2017-Dec-03 20:00N 37°50' W 122°25'2 3.2
2017-Dec-03 19:30N 37°49' W 122°27'2 3.0
2017-Dec-03 19:00N 37°49' W 122°25'2 4.1
2017-Dec-03 18:30N 37°49' W 122°27'2 4.1
2017-Dec-03 18:00N 37°49' W 122°25'0 0.0
2017-Dec-03 17:30N 37°49' W 122°25'0 0.0
2017-Dec-03 03:55N 37°49' W 122°25'0 0.1
2017-Dec-03 03:30N 37°49' W 122°25'2 2.1
2017-Dec-03 02:33N 37°49' W 122°22'0 9.3
2017-Dec-03 02:30N 37°49' W 122°23'4 8.3
2017-Dec-03 02:00N 37°49' W 122°28'3 5.2
2017-Dec-03 01:30N 37°49' W 122°25'0 0.0
2017-Dec-03 01:00N 37°49' W 122°25'1 1.8
2017-Dec-03 00:30N 37°49' W 122°25'2 3.5
2017-Dec-03 00:00N 37°49' W 122°27'2 3.6
2017-Dec-02 23:30N 37°49' W 122°25'2 4.7
2017-Dec-02 23:00N 37°49' W 122°28'2 4.7
2017-Dec-02 22:30N 37°49' W 122°25'0 0.9
2017-Dec-02 22:01N 37°49' W 122°25'3 5.5
2017-Dec-02 21:30N 37°49' W 122°28'3 5.6
2017-Dec-02 21:00N 37°49' W 122°25'0 0.0
2017-Dec-02 20:30N 37°49' W 122°25'1 1.2
2017-Dec-02 20:00N 37°49' W 122°25'2 4.5
2017-Dec-02 19:30N 37°49' W 122°28'2 4.5
2017-Dec-02 19:00N 37°49' W 122°25'2 4.2
2017-Dec-02 18:30N 37°49' W 122°27'2 4.2
2017-Dec-02 18:01N 37°49' W 122°25'0 0.0
2017-Dec-02 17:30N 37°49' W 122°25'0 0.0
2017-Dec-02 03:48N 37°49' W 122°25'0 0.0
2017-Dec-02 03:30N 37°49' W 122°25'2 4.6
2017-Dec-02 03:01N 37°47' W 122°23'2 4.4
2017-Dec-02 02:30N 37°49' W 122°23'4 8.6
2017-Dec-02 02:00N 37°49' W 122°28'3 5.8
2017-Dec-02 01:30N 37°49' W 122°25'0 0.0
2017-Dec-02 01:00N 37°49' W 122°25'1 2.1
2017-Dec-02 00:30N 37°50' W 122°25'2 3.4
2017-Dec-02 00:00N 37°49' W 122°27'2 3.3
2017-Dec-01 23:30N 37°49' W 122°25'3 5.5
2017-Dec-01 23:00N 37°49' W 122°28'3 5.5
2017-Dec-01 22:31N 37°49' W 122°25'1 1.9
2017-Dec-01 22:01N 37°50' W 122°25'2 5.0
2017-Dec-01 21:30N 37°49' W 122°28'3 5.0
2017-Dec-01 21:00N 37°49' W 122°25'0 0.0
2017-Dec-01 20:30N 37°49' W 122°25'1 2.2
2017-Dec-01 20:00N 37°50' W 122°25'2 3.5
2017-Dec-01 19:30N 37°49' W 122°27'2 3.6
2017-Dec-01 19:00N 37°49' W 122°25'2 4.3
2017-Dec-01 18:30N 37°49' W 122°27'2 4.3
2017-Dec-01 18:00N 37°49' W 122°25'  
Track history (hours):
 
Tides and Currents Weather Stations Pressure Air Temp Water Temp Dewpoint Dewpoint Depression Visibility Wind Speed Wind Dir Waves Ship Positions

Royal Prince

Owner: Golden Gate Scenic Steamship Corp, SAN FRANCISCO, CA. More information available from US FCC via Universal Licensing System and Coast Guard Vessel Documentation Center.

Last reported at 2017-Dec-11 03:52 UTC. Time now 2017-Dec-12 02:51 UTC.
Position N 37°49' W 122°25'.

; draft 3 m.

Type: Passenger vessel. MMSI: 366975760.

Date/timePositionNaut miles runAvg speedWind from/ knotsBaromVisibWave heightAir tempDewpointWater temp
2017-Dec-11 03:52N 37°49' W 122°25'0 0.0
2017-Dec-11 03:30N 37°49' W 122°25'2 4.6
2017-Dec-11 03:00N 37°47' W 122°23'2 4.2
2017-Dec-11 02:30N 37°49' W 122°23'4 8.0
2017-Dec-11 02:00N 37°49' W 122°28'3 5.2
2017-Dec-11 01:30N 37°49' W 122°25'0 0.0
2017-Dec-11 01:00N 37°49' W 122°25'1 2.0
2017-Dec-11 00:30N 37°50' W 122°25'1 3.0
2017-Dec-11 00:00N 37°49' W 122°27'1 2.9
2017-Dec-10 23:30N 37°49' W 122°25'3 5.4
2017-Dec-10 23:00N 37°49' W 122°28'3 5.4
2017-Dec-10 22:30N 37°49' W 122°25'0 0.9
2017-Dec-10 22:00N 37°49' W 122°24'3 5.8
2017-Dec-10 21:30N 37°49' W 122°28'3 5.1
2017-Dec-10 21:00N 37°49' W 122°25'0 0.0
2017-Dec-10 20:30N 37°49' W 122°25'1 2.4
2017-Dec-10 20:00N 37°50' W 122°25'2 3.2
2017-Dec-10 19:30N 37°49' W 122°27'2 3.0
2017-Dec-10 19:00N 37°49' W 122°25'3 5.2
2017-Dec-10 18:30N 37°49' W 122°28'3 5.2
2017-Dec-10 18:00N 37°49' W 122°25'0 0.0
2017-Dec-10 03:50N 37°49' W 122°25'0 0.0
2017-Dec-10 03:30N 37°49' W 122°25'2 4.7
2017-Dec-10 03:01N 37°47' W 122°23'2 5.0
2017-Dec-10 02:30N 37°49' W 122°24'4 7.3
2017-Dec-10 02:00N 37°49' W 122°28'3 5.3
2017-Dec-10 01:30N 37°49' W 122°25'0 0.0
2017-Dec-10 01:00N 37°49' W 122°25'1 1.6
2017-Dec-10 00:30N 37°49' W 122°25'2 4.5
2017-Dec-10 00:00N 37°49' W 122°27'2 3.8
2017-Dec-09 23:30N 37°49' W 122°25'2 4.7
2017-Dec-09 23:00N 37°49' W 122°28'2 4.7
2017-Dec-09 22:30N 37°49' W 122°25'1 1.1
2017-Dec-09 22:00N 37°49' W 122°24'3 5.8
2017-Dec-09 21:30N 37°49' W 122°28'2 4.8
2017-Dec-09 21:00N 37°49' W 122°25'0 0.0
2017-Dec-09 20:30N 37°49' W 122°25'1 1.8
2017-Dec-09 20:00N 37°49' W 122°25'2 3.9
2017-Dec-09 19:31N 37°49' W 122°27'2 3.6
2017-Dec-09 19:00N 37°49' W 122°25'2 4.2
2017-Dec-09 18:30N 37°49' W 122°27'2 4.2
2017-Dec-09 18:00N 37°49' W 122°25'0 0.0
2017-Dec-09 17:30N 37°49' W 122°25'0 0.0
2017-Dec-09 03:59N 37°49' W 122°25'0 0.0
2017-Dec-09 03:30N 37°49' W 122°25'2 4.8
2017-Dec-09 03:01N 37°47' W 122°23'2 4.9
2017-Dec-09 02:30N 37°49' W 122°24'4 7.2
2017-Dec-09 02:00N 37°49' W 122°28'3 5.2
2017-Dec-09 01:30N 37°49' W 122°25'0 0.0
2017-Dec-09 01:00N 37°49' W 122°25'1 1.9
2017-Dec-09 00:30N 37°50' W 122°25'2 3.7
2017-Dec-09 00:00N 37°49' W 122°27'2 3.6
2017-Dec-08 23:30N 37°49' W 122°25'2 4.4
2017-Dec-08 23:00N 37°49' W 122°27'2 4.4
2017-Dec-08 22:30N 37°49' W 122°25'1 1.3
2017-Dec-08 22:00N 37°49' W 122°24'3 5.1
2017-Dec-08 21:31N 37°49' W 122°28'2 4.3
2017-Dec-08 21:00N 37°49' W 122°25'0 0.0
2017-Dec-08 20:30N 37°49' W 122°25'1 2.6
2017-Dec-08 20:01N 37°50' W 122°25'1 2.2
2017-Dec-08 19:30N 37°49' W 122°26'1 1.3
2017-Dec-08 19:00N 37°49' W 122°25'2 4.5
2017-Dec-08 18:30N 37°49' W 122°28'2 4.5
2017-Dec-08 18:00N 37°49' W 122°25'0 0.0
2017-Dec-08 17:30N 37°49' W 122°25'0 0.0
2017-Dec-08 17:00N 37°49' W 122°25'0 0.0
2017-Dec-08 16:30N 37°49' W 122°25'0 0.0
2017-Dec-08 03:37N 37°49' W 122°25'0 0.0
2017-Dec-08 03:30N 37°49' W 122°25'2 4.7
2017-Dec-08 03:00N 37°47' W 122°23'3 5.4
2017-Dec-08 02:30N 37°49' W 122°24'4 7.1
2017-Dec-08 02:00N 37°49' W 122°28'3 5.8
2017-Dec-08 01:30N 37°49' W 122°25'0 0.0
2017-Dec-08 01:00N 37°49' W 122°25'1 2.0
2017-Dec-08 00:30N 37°50' W 122°25'2 4.6
2017-Dec-08 00:00N 37°49' W 122°28'2 4.7
2017-Dec-07 23:30N 37°49' W 122°25'2 4.5
2017-Dec-07 23:00N 37°49' W 122°28'2 4.5
2017-Dec-07 22:30N 37°49' W 122°25'1 1.3
2017-Dec-07 22:00N 37°49' W 122°25'2 4.7
2017-Dec-07 21:30N 37°49' W 122°28'2 4.2
2017-Dec-07 21:00N 37°49' W 122°25'0 0.0
2017-Dec-07 20:30N 37°49' W 122°25'1 1.9
2017-Dec-07 20:00N 37°50' W 122°25'2 3.2
2017-Dec-07 19:30N 37°49' W 122°27'2 3.0
2017-Dec-07 19:00N 37°49' W 122°25'3 6.1
2017-Dec-07 18:30N 37°49' W 122°29'3 0.2
2017-Dec-07 00:45N 37°49' W 122°25'1 4.2
2017-Dec-07 00:30N 37°50' W 122°25'2 4.1
2017-Dec-07 00:00N 37°49' W 122°28'2 4.2
2017-Dec-06 23:30N 37°49' W 122°25'2 3.7
2017-Dec-06 23:00N 37°49' W 122°27'2 3.7
2017-Dec-06 22:30N 37°49' W 122°25'0 0.4
2017-Dec-06 22:00N 37°49' W 122°25'3 6.1
2017-Dec-06 21:30N 37°49' W 122°29'3 5.8
2017-Dec-06 21:00N 37°49' W 122°25'  
2017-Dec-04 03:52N 37°49' W 122°25'0 0.0
2017-Dec-04 03:30N 37°49' W 122°25'2 4.6
2017-Dec-04 03:00N 37°47' W 122°23'2 4.4
2017-Dec-04 02:30N 37°49' W 122°23'4 7.9
2017-Dec-04 02:00N 37°49' W 122°28'3 5.2
2017-Dec-04 01:30N 37°49' W 122°25'0 0.0
2017-Dec-04 01:00N 37°49' W 122°25'1 1.7
2017-Dec-04 00:30N 37°49' W 122°25'2 4.1
2017-Dec-04 00:00N 37°49' W 122°28'2 4.3
2017-Dec-03 23:30N 37°49' W 122°25'2 4.5
2017-Dec-03 23:00N 37°49' W 122°28'2 4.5
2017-Dec-03 22:30N 37°49' W 122°25'1 1.1
2017-Dec-03 22:00N 37°49' W 122°25'3 5.4
2017-Dec-03 21:30N 37°49' W 122°28'3 5.3
2017-Dec-03 21:00N 37°49' W 122°25'0 0.0
2017-Dec-03 20:30N 37°49' W 122°25'1 2.0
2017-Dec-03 20:00N 37°50' W 122°25'2 3.2
2017-Dec-03 19:30N 37°49' W 122°27'2 3.0
2017-Dec-03 19:00N 37°49' W 122°25'2 4.1
2017-Dec-03 18:30N 37°49' W 122°27'2 4.1
2017-Dec-03 18:00N 37°49' W 122°25'0 0.0
2017-Dec-03 17:30N 37°49' W 122°25'0 0.0
2017-Dec-03 03:55N 37°49' W 122°25'0 0.1
2017-Dec-03 03:30N 37°49' W 122°25'2 2.1
2017-Dec-03 02:33N 37°49' W 122°22'0 9.3
2017-Dec-03 02:30N 37°49' W 122°23'4 8.3
2017-Dec-03 02:00N 37°49' W 122°28'3 5.2
2017-Dec-03 01:30N 37°49' W 122°25'0 0.0
2017-Dec-03 01:00N 37°49' W 122°25'1 1.8
2017-Dec-03 00:30N 37°49' W 122°25'2 3.5
2017-Dec-03 00:00N 37°49' W 122°27'2 3.6
2017-Dec-02 23:30N 37°49' W 122°25'2 4.7
2017-Dec-02 23:00N 37°49' W 122°28'2 4.7
2017-Dec-02 22:30N 37°49' W 122°25'0 0.9
2017-Dec-02 22:01N 37°49' W 122°25'3 5.5
2017-Dec-02 21:30N 37°49' W 122°28'3 5.6
2017-Dec-02 21:00N 37°49' W 122°25'0 0.0
2017-Dec-02 20:30N 37°49' W 122°25'1 1.2
2017-Dec-02 20:00N 37°49' W 122°25'2 4.5
2017-Dec-02 19:30N 37°49' W 122°28'2 4.5
2017-Dec-02 19:00N 37°49' W 122°25'2 4.2
2017-Dec-02 18:30N 37°49' W 122°27'2 4.2
2017-Dec-02 18:01N 37°49' W 122°25'0 0.0
2017-Dec-02 17:30N 37°49' W 122°25'0 0.0
2017-Dec-02 03:48N 37°49' W 122°25'0 0.0
2017-Dec-02 03:30N 37°49' W 122°25'2 4.6
2017-Dec-02 03:01N 37°47' W 122°23'2 4.4
2017-Dec-02 02:30N 37°49' W 122°23'4 8.6
2017-Dec-02 02:00N 37°49' W 122°28'3 5.8
2017-Dec-02 01:30N 37°49' W 122°25'0 0.0
2017-Dec-02 01:00N 37°49' W 122°25'1 2.1
2017-Dec-02 00:30N 37°50' W 122°25'2 3.4
2017-Dec-02 00:00N 37°49' W 122°27'2 3.3
2017-Dec-01 23:30N 37°49' W 122°25'3 5.5
2017-Dec-01 23:00N 37°49' W 122°28'3 5.5
2017-Dec-01 22:31N 37°49' W 122°25'1 1.9
2017-Dec-01 22:01N 37°50' W 122°25'2 5.0
2017-Dec-01 21:30N 37°49' W 122°28'3 5.0
2017-Dec-01 21:00N 37°49' W 122°25'0 0.0
2017-Dec-01 20:30N 37°49' W 122°25'1 2.2
2017-Dec-01 20:00N 37°50' W 122°25'2 3.5
2017-Dec-01 19:30N 37°49' W 122°27'2 3.6
2017-Dec-01 19:00N 37°49' W 122°25'2 4.3
2017-Dec-01 18:30N 37°49' W 122°27'2 4.3
2017-Dec-01 18:00N 37°49' W 122°25'  

Dump ship's entire track history